Wind Cave National Park, SD

1:37 AM MDT on September 03, 2014 (GMT -0600)
Custer County | Change Station
CLOSE
Current Station
Airport
Location: Custer,
Elevation: 5600 ft
Nearby Weather Stations

Elev 5600 ft 43.73 °N, 103.62 °W | Updated 44 minutes ago

Clear
Clear
47 °F
Feels Like 47 °F
N
0
Wind Variable Wind from North

Today
High -- | Low -- °F
--% Chance of Precip.
Yesterday
High -- | Low -- °F
Precip. -- in
6:20 AM 7:26 PM
First Quarter, 59% visible
Pressure 29.71 in
Visibility 10.0 miles
Clouds Clear
Dew Point 36 °F
Humidity 66%
Rainfall 0.00 in
Snow Depth Not available.
UV 0 out of 12
Pollen 8.80 out of 12
Air Quality Not available.
Flu Activity Not available.
METAR KCUT 030653Z AUTO 00000KT 10SM CLR 08/02 A2987 RMK AO2 SLP060 T00830022 402390056

More Conditions Fewer Conditions

Pressure 29.71 in
Visibility 10.0 miles
Clouds Clear
Dew Point 36 °F
Humidity 66%
Rainfall 0.00 in
Snow Depth Not available.
UV 0 out of 12
Pollen 8.80 out of 12
Air Quality Not available.
Flu Activity Not available.
METAR KCUT 030653Z AUTO 00000KT 10SM CLR 08/02 A2987 RMK AO2 SLP060 T00830022 402390056

More Conditions Fewer Conditions

10-Day Weather Forecast

Almanac

Astronomy

Sep. 03, 2014 Rise Set
Actual Time 6:20 AM MDT 7:26 PM MDT
Civil Twilight 5:50 AM MDT 7:55 PM MDT
Nautical Twilight 5:15 AM MDT 8:31 PM MDT
Astronomical Twilight 4:38 AM MDT 9:07 PM MDT
Moon 3:16 PM MDT 12:10 AM MDT
Length of Visible Light 14h 04m
Length of Day
13h 06m
Tomorrow will be 2m 55s shorter.
First Quarter, 59% of the Moon is Illuminated
Today
First Quarter
Sep 8
Full
Sep 15
Last Quarter
Sep 24
New
Oct 1
First Quarter

Today's Extremes

State Highs State Lows

Community

WunderPhotos

Upload Photos

1,749,891 photos uploaded!

Nearby

Snow Depth

Station Depth Elevation
Blind Park 0 in 6890 ft
North Rapid Creek 0 in 6130 ft

Earthquake Activity

City Distance Mag. Time & Date
No recent earthquake activity has been reported nearby.
Minimum magnitude displayed is 2.5.

Coastal Water Temperatures

Place Temperature
No Stations Reporting

Nearby Weather Stations